Time;durP1;ratioP1;P1;durP2;ratioP2;P2;SDS_P1;SDS_P2;PMS_P1;PMS_P2;Temp;Humidity;BMP_temperature;BMP_pressure;BME280_temperature;BME280_humidity;BME280_pressure;Samples;Min_cycle;Max_cycle;Signal;HPM_P1;HPM_P2
2022/12/20 00:02:06;;;;;;;9.53;7.60;;;;;;;;;;5072657;28;20459;-81
2022/12/20 00:04:32;;;;;;;11.57;8.73;;;;;;;;;;5072537;28;20456;-81
2022/12/20 00:06:59;;;;;;;14.33;7.90;;;;;;;;;;5072037;28;20474;-81
2022/12/20 00:09:29;;;;;;;8.20;7.40;;;;;;;;;;5067519;28;20459;-81
2022/12/20 00:11:55;;;;;;;10.40;7.53;;;;;;;;;;5075760;28;20460;-81
2022/12/20 00:14:21;;;;;;;9.73;8.23;;;;;;;;;;5070195;28;20949;-81
2022/12/20 00:16:48;;;;;;;10.30;8.40;;;;;;;;;;5073510;28;21015;-81
2022/12/20 00:19:15;;;;;;;8.07;6.20;;;;;;;;;;5072523;28;20486;-81
2022/12/20 00:21:42;;;;;;;8.50;7.23;;;;;;;;;;5068593;28;20487;-81
2022/12/20 00:24:10;;;;;;;9.00;7.03;;;;;;;;;;5069818;28;20461;-81
2022/12/20 00:26:37;;;;;;;10.83;7.93;;;;;;;;;;5071535;28;20467;-81
2022/12/20 00:29:04;;;;;;;9.40;6.90;;;;;;;;;;5070969;28;20472;-81
2022/12/20 00:31:32;;;;;;;8.10;7.30;;;;;;;;;;5065448;28;20556;-81
2022/12/20 00:33:59;;;;;;;8.13;7.10;;;;;;;;;;5068336;28;20947;-81
2022/12/20 00:36:27;;;;;;;10.27;7.30;;;;;;;;;;5069795;28;20490;-81
2022/12/20 00:38:55;;;;;;;9.67;7.53;;;;;;;;;;5072161;28;20466;-81
2022/12/20 00:41:22;;;;;;;10.03;6.90;;;;;;;;;;5067417;28;20485;-81
2022/12/20 00:43:50;;;;;;;12.63;8.03;;;;;;;;;;5074396;28;20488;-81
2022/12/20 00:46:17;;;;;;;13.70;6.87;;;;;;;;;;5068887;28;20818;-81
2022/12/20 00:48:49;;;;;;;10.20;7.00;;;;;;;;;;5066489;28;20485;-81
2022/12/20 00:51:16;;;;;;;9.90;7.60;;;;;;;;;;5064562;28;20463;-81
2022/12/20 00:53:43;;;;;;;14.13;7.17;;;;;;;;;;5074478;28;20459;-81
2022/12/20 00:56:10;;;;;;;10.30;7.90;;;;;;;;;;5065450;28;20460;-81
2022/12/20 00:58:37;;;;;;;9.73;6.93;;;;;;;;;;5071004;28;20491;-81
2022/12/20 01:01:06;;;;;;;9.50;6.97;;;;;;;;;;5070610;28;20465;-81
2022/12/20 01:03:32;;;;;;;10.40;7.27;;;;;;;;;;5067409;28;20478;-81
2022/12/20 01:06:00;;;;;;;7.93;7.17;;;;;;;;;;5068655;28;20467;-81
2022/12/20 01:08:27;;;;;;;12.57;7.87;;;;;;;;;;5066237;28;20475;-81
2022/12/20 01:11:00;;;;;;;8.90;8.00;;;;;;;;;;5067074;28;20463;-81
2022/12/20 01:13:27;;;;;;;10.10;7.00;;;;;;;;;;5069085;28;20466;-81
2022/12/20 01:15:54;;;;;;;10.40;7.93;;;;;;;;;;5062041;28;20464;-81
2022/12/20 01:18:21;;;;;;;11.30;7.87;;;;;;;;;;5064335;28;20961;-81
2022/12/20 01:20:48;;;;;;;11.00;7.63;;;;;;;;;;5070239;28;20460;-81
2022/12/20 01:23:14;;;;;;;12.33;8.27;;;;;;;;;;5063446;28;20480;-81
2022/12/20 01:25:41;;;;;;;9.83;7.33;;;;;;;;;;5068844;28;20973;-81
2022/12/20 01:28:08;;;;;;;9.00;7.37;;;;;;;;;;5066776;28;20823;-81
2022/12/20 01:30:35;;;;;;;11.83;7.47;;;;;;;;;;5067719;28;20477;-81
2022/12/20 01:33:01;;;;;;;8.63;7.67;;;;;;;;;;5066237;28;20479;-81
2022/12/20 01:35:29;;;;;;;11.03;7.80;;;;;;;;;;5071912;28;20466;-81
2022/12/20 01:37:55;;;;;;;9.03;6.63;;;;;;;;;;5065343;28;20490;-81
2022/12/20 01:40:23;;;;;;;8.90;6.90;;;;;;;;;;5074161;28;20439;-81
2022/12/20 01:42:49;;;;;;;8.60;6.77;;;;;;;;;;5065459;28;20483;-81
2022/12/20 01:45:23;;;;;;;7.47;6.23;;;;;;;;;;5061793;28;20475;-81
2022/12/20 01:47:49;;;;;;;8.33;7.10;;;;;;;;;;5051656;28;20591;-81
2022/12/20 01:50:16;;;;;;;12.00;6.83;;;;;;;;;;5066481;28;20459;-81
2022/12/20 01:52:45;;;;;;;9.27;6.27;;;;;;;;;;5064733;28;20478;-82
2022/12/20 01:55:12;;;;;;;12.40;7.00;;;;;;;;;;5068279;28;20469;-81
2022/12/20 01:57:42;;;;;;;9.00;7.27;;;;;;;;;;5067110;28;20549;-81
2022/12/20 02:00:09;;;;;;;12.03;6.63;;;;;;;;;;5062743;28;20469;-81
2022/12/20 02:02:36;;;;;;;6.83;6.13;;;;;;;;;;5065911;28;21005;-81
2022/12/20 02:05:03;;;;;;;7.33;5.97;;;;;;;;;;5068990;28;20491;-81
2022/12/20 02:07:31;;;;;;;8.47;6.30;;;;;;;;;;5066585;28;20487;-81
2022/12/20 02:10:00;;;;;;;7.03;6.33;;;;;;;;;;5062410;28;20452;-81
2022/12/20 02:12:30;;;;;;;10.17;5.93;;;;;;;;;;5068201;28;20482;-81
2022/12/20 02:15:02;;;;;;;9.50;7.00;;;;;;;;;;5068095;28;20467;-81
2022/12/20 02:17:35;;;;;;;10.33;7.83;;;;;;;;;;5060715;28;20471;-81
2022/12/20 02:20:12;;;;;;;7.33;6.50;;;;;;;;;;5068035;28;20451;-81
2022/12/20 02:22:44;;;;;;;7.70;6.77;;;;;;;;;;5064957;28;20856;-81
2022/12/20 02:25:29;;;;;;;10.67;7.40;;;;;;;;;;5066295;28;20483;-81
2022/12/20 02:28:00;;;;;;;8.57;6.07;;;;;;;;;;5064339;28;21015;-81
2022/12/20 02:30:29;;;;;;;8.30;6.30;;;;;;;;;;5070734;28;20998;-81
2022/12/20 02:32:59;;;;;;;11.10;6.53;;;;;;;;;;5071011;28;20823;-81
2022/12/20 02:35:27;;;;;;;8.73;6.50;;;;;;;;;;5067137;28;20947;-81
2022/12/20 02:37:57;;;;;;;7.80;6.87;;;;;;;;;;5068924;28;20475;-81
2022/12/20 02:40:25;;;;;;;8.83;6.93;;;;;;;;;;5066516;28;20524;-81
2022/12/20 02:42:54;;;;;;;6.93;5.33;;;;;;;;;;5069255;28;20477;-82
2022/12/20 02:45:21;;;;;;;7.83;6.60;;;;;;;;;;5069167;28;20435;-82
2022/12/20 02:47:52;;;;;;;10.90;6.90;;;;;;;;;;5067812;28;20475;-81
2022/12/20 02:50:21;;;;;;;8.97;6.90;;;;;;;;;;5068046;28;20468;-81
2022/12/20 02:52:48;;;;;;;9.13;7.20;;;;;;;;;;5064848;28;20468;-81
2022/12/20 02:55:15;;;;;;;9.30;7.33;;;;;;;;;;5068547;28;20470;-81
2022/12/20 02:57:44;;;;;;;11.80;7.50;;;;;;;;;;5065808;28;20474;-81
2022/12/20 03:00:12;;;;;;;8.03;7.17;;;;;;;;;;5066206;28;20941;-81
2022/12/20 03:05:25;;;;;;;6.80;5.43;;;;;;;;;;5063613;28;20484;-81
2022/12/20 03:07:52;;;;;;;11.60;6.97;;;;;;;;;;5064011;28;20483;-81
2022/12/20 03:10:19;;;;;;;7.50;6.23;;;;;;;;;;5065376;28;20463;-81
2022/12/20 03:12:45;;;;;;;10.00;6.67;;;;;;;;;;5065649;28;20478;-81
2022/12/20 03:15:11;;;;;;;9.87;7.17;;;;;;;;;;5062600;28;20450;-81
2022/12/20 03:17:38;;;;;;;11.87;6.33;;;;;;;;;;5069079;28;20498;-81
2022/12/20 03:20:05;;;;;;;8.53;6.23;;;;;;;;;;5067530;28;20460;-81
2022/12/20 03:22:33;;;;;;;8.90;5.50;;;;;;;;;;5065750;28;20520;-81
2022/12/20 03:24:59;;;;;;;7.60;6.53;;;;;;;;;;5060059;28;20525;-81
2022/12/20 03:27:26;;;;;;;9.53;6.90;;;;;;;;;;5063429;28;20471;-81
2022/12/20 03:29:53;;;;;;;6.17;5.40;;;;;;;;;;5065548;28;20502;-81
2022/12/20 03:32:19;;;;;;;7.00;5.97;;;;;;;;;;5065955;28;20483;-81
2022/12/20 03:34:46;;;;;;;7.07;5.87;;;;;;;;;;5064500;28;20820;-81
2022/12/20 03:37:12;;;;;;;9.47;6.53;;;;;;;;;;5070536;28;20529;-81
2022/12/20 03:39:40;;;;;;;8.30;6.33;;;;;;;;;;5063352;28;20487;-81
2022/12/20 03:42:07;;;;;;;7.90;6.17;;;;;;;;;;5070889;28;20468;-81
2022/12/20 03:44:33;;;;;;;7.07;6.00;;;;;;;;;;5067930;28;20864;-81
2022/12/20 03:46:59;;;;;;;7.60;5.70;;;;;;;;;;5068795;28;20475;-81
2022/12/20 03:49:26;;;;;;;7.60;6.20;;;;;;;;;;5064633;28;21031;-81
2022/12/20 03:51:53;;;;;;;9.30;5.90;;;;;;;;;;5065064;28;20486;-81
2022/12/20 03:54:20;;;;;;;7.07;5.67;;;;;;;;;;5074828;28;20959;-81
2022/12/20 03:56:47;;;;;;;10.70;6.90;;;;;;;;;;5061932;28;20485;-81
2022/12/20 03:59:14;;;;;;;9.17;6.50;;;;;;;;;;5065358;28;20460;-81
2022/12/20 04:01:40;;;;;;;7.60;6.80;;;;;;;;;;5069187;28;20462;-81
2022/12/20 04:04:08;;;;;;;6.90;5.77;;;;;;;;;;5072794;28;20491;-81
2022/12/20 04:06:34;;;;;;;10.37;6.43;;;;;;;;;;5069795;28;20474;-81
2022/12/20 04:09:00;;;;;;;7.83;6.57;;;;;;;;;;5066645;28;20490;-81
2022/12/20 04:11:27;;;;;;;8.53;5.57;;;;;;;;;;5068014;28;20461;-81
2022/12/20 04:13:55;;;;;;;8.87;5.70;;;;;;;;;;5068330;28;20456;-81
2022/12/20 04:16:23;;;;;;;11.17;6.57;;;;;;;;;;5071344;28;20466;-81
2022/12/20 04:18:50;;;;;;;6.97;6.07;;;;;;;;;;5073769;28;20489;-81
2022/12/20 04:21:21;;;;;;;7.47;5.63;;;;;;;;;;5066511;28;20831;-81
2022/12/20 04:23:49;;;;;;;11.40;6.07;;;;;;;;;;5069509;28;20478;-81
2022/12/20 04:26:15;;;;;;;10.63;6.17;;;;;;;;;;5068192;28;20474;-81
2022/12/20 04:28:42;;;;;;;11.53;6.30;;;;;;;;;;5070868;28;21010;-81
2022/12/20 04:31:10;;;;;;;11.60;6.97;;;;;;;;;;5071737;28;20463;-81
2022/12/20 04:33:36;;;;;;;9.40;6.63;;;;;;;;;;5064325;28;20468;-81
2022/12/20 04:36:03;;;;;;;12.27;6.10;;;;;;;;;;5069911;28;20463;-82
2022/12/20 04:38:30;;;;;;;7.03;5.83;;;;;;;;;;5057657;28;20483;-81
2022/12/20 04:40:57;;;;;;;10.10;5.80;;;;;;;;;;5067792;28;20463;-81
2022/12/20 04:43:24;;;;;;;7.30;6.60;;;;;;;;;;5074730;28;20478;-81
2022/12/20 04:45:51;;;;;;;8.03;5.87;;;;;;;;;;5066043;28;20487;-81
2022/12/20 04:48:19;;;;;;;12.80;6.53;;;;;;;;;;5069881;28;20501;-81
2022/12/20 04:50:47;;;;;;;7.63;5.60;;;;;;;;;;5063689;28;20472;-81
2022/12/20 04:55:59;;;;;;;7.60;6.17;;;;;;;;;;5066552;28;20489;-81
2022/12/20 04:58:25;;;;;;;5.60;5.10;;;;;;;;;;5069812;28;20853;-81
2022/12/20 05:00:52;;;;;;;8.43;5.73;;;;;;;;;;5068927;28;20459;-81
2022/12/20 05:03:20;;;;;;;10.10;7.30;;;;;;;;;;5071539;28;20484;-81
2022/12/20 05:05:46;;;;;;;11.30;7.10;;;;;;;;;;5069259;28;20453;-81
2022/12/20 05:08:13;;;;;;;8.03;6.20;;;;;;;;;;5072287;28;20474;-81
2022/12/20 05:10:39;;;;;;;12.50;6.57;;;;;;;;;;5070364;28;21026;-81
2022/12/20 05:13:06;;;;;;;9.83;6.03;;;;;;;;;;5072751;28;20467;-81
2022/12/20 05:15:32;;;;;;;6.90;6.20;;;;;;;;;;5067373;28;20813;-81
2022/12/20 05:17:59;;;;;;;8.20;6.30;;;;;;;;;;5070629;28;20583;-81
2022/12/20 05:20:27;;;;;;;6.90;5.90;;;;;;;;;;5072475;28;20447;-81
2022/12/20 05:28:24;;;;;;;8.90;5.70;;;;;;;;;;5071936;28;20459;-81
2022/12/20 05:30:50;;;;;;;14.40;6.10;;;;;;;;;;5067090;28;20502;-81
2022/12/20 05:33:17;;;;;;;6.93;5.60;;;;;;;;;;5070040;28;20455;-81
2022/12/20 05:35:44;;;;;;;7.83;6.60;;;;;;;;;;5068492;28;20459;-81
2022/12/20 05:38:11;;;;;;;10.63;5.67;;;;;;;;;;5069738;28;20502;-81
2022/12/20 05:40:37;;;;;;;7.17;5.87;;;;;;;;;;5070301;28;20467;-81
2022/12/20 05:43:05;;;;;;;9.10;6.80;;;;;;;;;;5068696;28;20468;-81
2022/12/20 05:45:31;;;;;;;8.47;6.97;;;;;;;;;;5067864;28;20448;-81
2022/12/20 05:47:58;;;;;;;7.70;5.90;;;;;;;;;;5066392;28;20491;-81
2022/12/20 05:50:24;;;;;;;8.83;6.10;;;;;;;;;;5068990;28;20455;-81
2022/12/20 05:52:52;;;;;;;7.70;6.33;;;;;;;;;;5066860;28;20476;-81
2022/12/20 05:55:19;;;;;;;9.67;5.40;;;;;;;;;;5065197;28;20462;-81
2022/12/20 05:57:45;;;;;;;8.20;5.63;;;;;;;;;;5067047;28;20467;-81
2022/12/20 06:00:12;;;;;;;9.67;6.43;;;;;;;;;;5069225;28;20462;-81
2022/12/20 06:02:39;;;;;;;8.20;6.27;;;;;;;;;;5064520;28;21002;-81
2022/12/20 06:05:05;;;;;;;9.50;6.80;;;;;;;;;;5065031;28;20595;-81
2022/12/20 06:07:32;;;;;;;8.40;7.07;;;;;;;;;;5063235;28;20479;-81
2022/12/20 06:09:59;;;;;;;9.07;7.57;;;;;;;;;;5070950;28;20462;-81
2022/12/20 06:12:26;;;;;;;8.23;7.27;;;;;;;;;;5069126;28;20462;-81
2022/12/20 06:14:52;;;;;;;9.97;8.90;;;;;;;;;;5068457;28;20440;-81
2022/12/20 06:17:20;;;;;;;10.73;7.80;;;;;;;;;;5064998;28;20479;-86
2022/12/20 06:19:47;;;;;;;12.17;7.97;;;;;;;;;;5070623;28;20479;-81
2022/12/20 06:22:13;;;;;;;9.73;7.40;;;;;;;;;;5067109;28;20467;-81
2022/12/20 06:24:40;;;;;;;14.80;8.77;;;;;;;;;;5065949;28;20484;-81
2022/12/20 06:27:08;;;;;;;10.27;7.63;;;;;;;;;;5069416;28;20474;-81
2022/12/20 06:29:36;;;;;;;12.97;8.43;;;;;;;;;;5067642;28;20469;-81
2022/12/20 06:32:04;;;;;;;10.30;7.37;;;;;;;;;;5067128;28;20476;-81
2022/12/20 06:34:30;;;;;;;12.97;8.77;;;;;;;;;;5070939;28;20549;-81
2022/12/20 06:36:57;;;;;;;11.50;7.90;;;;;;;;;;5067759;28;20481;-81
2022/12/20 06:39:23;;;;;;;13.27;7.87;;;;;;;;;;5069664;28;20479;-81
2022/12/20 06:41:49;;;;;;;11.17;7.47;;;;;;;;;;5071195;28;20476;-81
2022/12/20 06:44:17;;;;;;;10.17;7.40;;;;;;;;;;5065344;28;20487;-81
2022/12/20 06:46:43;;;;;;;16.23;7.60;;;;;;;;;;5063349;28;20985;-81
2022/12/20 06:49:13;;;;;;;10.50;7.50;;;;;;;;;;5067453;28;20479;-81
2022/12/20 06:51:40;;;;;;;14.80;9.07;;;;;;;;;;5064747;28;20476;-81
2022/12/20 06:54:06;;;;;;;10.03;7.17;;;;;;;;;;5071162;28;20453;-81
2022/12/20 06:56:33;;;;;;;9.80;8.33;;;;;;;;;;5065180;28;20505;-81
2022/12/20 06:58:59;;;;;;;12.50;7.97;;;;;;;;;;5070198;28;20474;-81
2022/12/20 07:01:27;;;;;;;7.33;6.10;;;;;;;;;;5067119;28;20472;-81
2022/12/20 07:03:53;;;;;;;9.27;6.67;;;;;;;;;;5069600;28;20483;-81
2022/12/20 07:06:19;;;;;;;13.10;7.17;;;;;;;;;;5067298;28;20463;-81
2022/12/20 07:08:46;;;;;;;9.87;8.23;;;;;;;;;;5069433;28;20464;-81
2022/12/20 07:11:12;;;;;;;9.10;7.23;;;;;;;;;;5070449;28;20983;-81
2022/12/20 07:13:38;;;;;;;9.13;6.47;;;;;;;;;;5066428;28;20543;-81
2022/12/20 07:16:06;;;;;;;6.37;5.77;;;;;;;;;;5070705;28;20506;-81
2022/12/20 07:18:34;;;;;;;7.97;7.17;;;;;;;;;;5061694;28;20942;-81
2022/12/20 07:21:01;;;;;;;7.10;6.40;;;;;;;;;;5065809;28;20459;-81
2022/12/20 07:23:27;;;;;;;9.70;6.80;;;;;;;;;;5072172;28;20458;-81
2022/12/20 07:25:55;;;;;;;11.00;6.80;;;;;;;;;;5066612;28;20490;-81
2022/12/20 07:28:21;;;;;;;9.90;7.27;;;;;;;;;;5067096;28;20460;-81
2022/12/20 07:30:48;;;;;;;10.10;6.40;;;;;;;;;;5071543;28;20488;-81
2022/12/20 07:33:14;;;;;;;11.30;7.63;;;;;;;;;;5064513;28;20532;-81
2022/12/20 07:35:42;;;;;;;15.27;6.80;;;;;;;;;;5070408;28;20438;-81
2022/12/20 07:38:09;;;;;;;7.37;5.77;;;;;;;;;;5068150;28;20503;-81
2022/12/20 07:40:36;;;;;;;7.60;6.60;;;;;;;;;;5073290;28;20915;-81
2022/12/20 07:43:02;;;;;;;9.20;6.53;;;;;;;;;;5072286;28;20475;-81
2022/12/20 07:45:28;;;;;;;6.90;6.20;;;;;;;;;;5069722;28;20502;-81
2022/12/20 07:47:56;;;;;;;9.93;7.20;;;;;;;;;;5067424;28;20535;-81
2022/12/20 07:50:22;;;;;;;8.13;6.23;;;;;;;;;;5074217;28;20460;-81
2022/12/20 07:52:50;;;;;;;10.97;6.90;;;;;;;;;;5069398;28;20479;-81
2022/12/20 07:55:18;;;;;;;6.73;5.53;;;;;;;;;;5069016;28;20458;-81
2022/12/20 07:57:46;;;;;;;7.70;6.27;;;;;;;;;;5055467;28;20830;-81
2022/12/20 08:00:13;;;;;;;8.67;6.50;;;;;;;;;;5073243;28;20803;-81
2022/12/20 08:02:42;;;;;;;9.47;7.30;;;;;;;;;;5072709;28;20471;-81
2022/12/20 08:05:11;;;;;;;9.60;6.97;;;;;;;;;;5066150;28;20480;-81
2022/12/20 08:07:39;;;;;;;8.40;6.77;;;;;;;;;;5070071;28;20567;-81
2022/12/20 08:10:09;;;;;;;11.13;6.67;;;;;;;;;;5070354;28;20446;-81
2022/12/20 08:12:35;;;;;;;8.43;6.63;;;;;;;;;;5067385;28;20574;-81
2022/12/20 08:15:02;;;;;;;5.97;5.30;;;;;;;;;;5069872;28;20456;-81
2022/12/20 08:17:28;;;;;;;10.13;5.73;;;;;;;;;;5072682;28;20486;-81
2022/12/20 08:19:56;;;;;;;8.10;6.63;;;;;;;;;;5067543;28;20439;-81
2022/12/20 08:22:23;;;;;;;10.13;5.90;;;;;;;;;;5070495;28;20497;-81
2022/12/20 08:24:49;;;;;;;7.77;6.63;;;;;;;;;;5071825;28;20525;-81
2022/12/20 08:27:17;;;;;;;10.07;6.00;;;;;;;;;;5072062;28;20476;-81
2022/12/20 08:29:43;;;;;;;9.63;6.50;;;;;;;;;;5069970;28;20463;-81
2022/12/20 08:32:12;;;;;;;7.73;5.83;;;;;;;;;;5069507;28;20467;-81
2022/12/20 08:34:39;;;;;;;6.43;5.77;;;;;;;;;;5069256;28;20489;-81
2022/12/20 08:37:05;;;;;;;8.30;5.93;;;;;;;;;;5071642;28;20481;-81
2022/12/20 08:39:32;;;;;;;7.73;6.20;;;;;;;;;;5066157;28;20477;-81
2022/12/20 08:41:58;;;;;;;8.63;6.67;;;;;;;;;;5068633;28;20483;-81
2022/12/20 08:44:26;;;;;;;9.37;6.30;;;;;;;;;;5072388;28;21005;-81
2022/12/20 08:46:53;;;;;;;12.50;6.97;;;;;;;;;;5070867;28;20470;-81
2022/12/20 08:49:20;;;;;;;11.20;7.97;;;;;;;;;;5069758;28;20472;-81
2022/12/20 08:51:46;;;;;;;11.80;7.30;;;;;;;;;;5069190;28;20483;-82
2022/12/20 08:54:12;;;;;;;10.30;7.40;;;;;;;;;;5075183;28;20459;-81
2022/12/20 08:56:39;;;;;;;18.27;8.47;;;;;;;;;;5072308;28;20464;-81
2022/12/20 08:59:05;;;;;;;8.60;6.80;;;;;;;;;;5074976;28;20473;-81
2022/12/20 09:01:33;;;;;;;7.57;6.77;;;;;;;;;;5071824;28;20540;-81
2022/12/20 09:03:59;;;;;;;8.27;6.40;;;;;;;;;;5070434;28;20444;-81
2022/12/20 09:06:26;;;;;;;9.23;7.30;;;;;;;;;;5068269;28;20468;-81
2022/12/20 09:08:54;;;;;;;11.23;7.37;;;;;;;;;;5065669;28;20463;-81
2022/12/20 09:11:22;;;;;;;16.10;7.83;;;;;;;;;;5076383;28;20516;-81
2022/12/20 09:13:49;;;;;;;9.00;7.33;;;;;;;;;;5056059;28;20460;-81
2022/12/20 09:16:17;;;;;;;9.33;7.53;;;;;;;;;;5067532;28;20472;-81
2022/12/20 09:18:48;;;;;;;9.93;7.23;;;;;;;;;;5074691;28;20473;-81
2022/12/20 09:21:16;;;;;;;14.63;7.67;;;;;;;;;;5068427;28;20980;-81
2022/12/20 09:23:42;;;;;;;8.80;6.70;;;;;;;;;;5074522;28;20811;-81
2022/12/20 09:26:11;;;;;;;17.20;8.93;;;;;;;;;;5069905;28;20471;-81
2022/12/20 09:28:37;;;;;;;9.73;6.73;;;;;;;;;;5067778;28;20486;-81
2022/12/20 09:31:05;;;;;;;10.57;7.70;;;;;;;;;;5067368;28;20498;-81
2022/12/20 09:33:33;;;;;;;12.67;7.07;;;;;;;;;;5065653;28;20451;-81
2022/12/20 09:36:01;;;;;;;9.93;6.70;;;;;;;;;;5071096;28;20474;-81
2022/12/20 09:38:28;;;;;;;8.93;6.40;;;;;;;;;;5068985;28;20471;-81
2022/12/20 09:40:55;;;;;;;7.07;6.37;;;;;;;;;;5071079;28;20451;-81
2022/12/20 09:43:22;;;;;;;6.87;6.00;;;;;;;;;;5072002;28;20446;-81
2022/12/20 09:45:55;;;;;;;9.83;6.83;;;;;;;;;;5067617;28;20483;-81
2022/12/20 09:48:22;;;;;;;7.23;6.60;;;;;;;;;;5068949;28;20469;-81
2022/12/20 09:50:53;;;;;;;7.47;6.67;;;;;;;;;;5064016;28;20519;-82
2022/12/20 09:53:26;;;;;;;6.37;5.20;;;;;;;;;;5070859;28;20452;-81
2022/12/20 09:55:54;;;;;;;10.03;6.13;;;;;;;;;;5069268;28;20439;-81
2022/12/20 09:58:29;;;;;;;6.50;5.33;;;;;;;;;;5067432;28;20497;-81
2022/12/20 10:00:56;;;;;;;10.00;6.50;;;;;;;;;;5058937;28;20439;-81
2022/12/20 10:03:23;;;;;;;8.80;5.40;;;;;;;;;;5063884;28;20482;-81
2022/12/20 10:05:51;;;;;;;10.07;5.10;;;;;;;;;;5065377;28;20488;-81
2022/12/20 10:08:24;;;;;;;6.57;4.90;;;;;;;;;;5065873;28;20498;-81
2022/12/20 10:10:55;;;;;;;8.07;5.30;;;;;;;;;;5064058;28;20471;-81
2022/12/20 10:13:26;;;;;;;8.67;6.00;;;;;;;;;;5063989;28;20455;-81
2022/12/20 10:15:54;;;;;;;7.57;5.03;;;;;;;;;;5068936;28;20451;-81
2022/12/20 10:18:29;;;;;;;8.67;5.50;;;;;;;;;;5063534;28;20479;-81
2022/12/20 10:20:59;;;;;;;10.30;5.00;;;;;;;;;;5068569;28;20598;-81
2022/12/20 10:23:33;;;;;;;5.67;4.30;;;;;;;;;;5068689;28;20447;-81
2022/12/20 10:25:59;;;;;;;8.77;5.70;;;;;;;;;;5067312;28;20486;-81
2022/12/20 10:28:27;;;;;;;8.30;5.10;;;;;;;;;;5068815;28;20972;-81
2022/12/20 10:30:53;;;;;;;9.43;5.57;;;;;;;;;;5070894;28;20462;-81
2022/12/20 10:33:21;;;;;;;7.80;6.30;;;;;;;;;;5070826;28;20975;-81
2022/12/20 10:35:49;;;;;;;5.43;4.93;;;;;;;;;;5069784;28;20455;-81
2022/12/20 10:38:17;;;;;;;8.03;5.43;;;;;;;;;;5072983;28;20462;-81
2022/12/20 10:40:45;;;;;;;6.07;5.47;;;;;;;;;;5069162;28;20562;-81
2022/12/20 10:43:15;;;;;;;6.93;4.77;;;;;;;;;;5066905;28;20467;-81
2022/12/20 10:45:42;;;;;;;8.03;5.43;;;;;;;;;;5070998;28;20479;-81
2022/12/20 10:48:25;;;;;;;5.43;4.93;;;;;;;;;;5072956;28;20478;-81
2022/12/20 10:50:55;;;;;;;6.80;5.47;;;;;;;;;;5067984;28;20474;-81
2022/12/20 10:53:23;;;;;;;10.40;5.80;;;;;;;;;;5068542;28;20466;-81
2022/12/20 10:55:51;;;;;;;5.73;5.23;;;;;;;;;;5070848;28;21030;-81
2022/12/20 10:58:22;;;;;;;6.63;3.93;;;;;;;;;;5069554;28;20476;-82
2022/12/20 11:00:49;;;;;;;4.60;4.20;;;;;;;;;;5068790;28;21090;-81
2022/12/20 11:03:17;;;;;;;6.20;5.07;;;;;;;;;;5071298;28;20451;-82
2022/12/20 11:05:52;;;;;;;9.10;5.27;;;;;;;;;;5065459;28;20862;-82
2022/12/20 11:08:20;;;;;;;8.13;4.83;;;;;;;;;;5062846;28;20475;-81
2022/12/20 11:10:47;;;;;;;7.93;5.00;;;;;;;;;;5074794;28;20466;-81
2022/12/20 11:13:22;;;;;;;6.00;4.40;;;;;;;;;;5070139;28;20474;-81
2022/12/20 11:15:50;;;;;;;6.13;4.77;;;;;;;;;;5073397;28;20947;-82
2022/12/20 11:18:20;;;;;;;7.00;5.40;;;;;;;;;;5070278;28;20577;-81
2022/12/20 11:20:51;;;;;;;8.63;5.37;;;;;;;;;;5073648;28;20440;-81
2022/12/20 11:23:22;;;;;;;7.57;4.90;;;;;;;;;;5069992;28;20550;-81
2022/12/20 11:25:57;;;;;;;8.40;5.27;;;;;;;;;;5072631;28;20477;-81
2022/12/20 11:28:31;;;;;;;6.10;4.60;;;;;;;;;;5071780;28;20477;-81
2022/12/20 11:31:04;;;;;;;7.67;5.03;;;;;;;;;;5073167;28;20451;-81
2022/12/20 11:33:41;;;;;;;14.10;6.10;;;;;;;;;;5068955;28;20444;-82
2022/12/20 11:36:13;;;;;;;7.10;5.30;;;;;;;;;;5074078;28;20485;-81
2022/12/20 11:38:41;;;;;;;7.20;5.33;;;;;;;;;;5075566;28;20538;-81
2022/12/20 11:41:16;;;;;;;5.57;4.83;;;;;;;;;;5074682;28;21031;-81
2022/12/20 11:44:00;;;;;;;7.23;5.00;;;;;;;;;;5068903;28;20474;-81
2022/12/20 11:46:36;;;;;;;8.80;6.23;;;;;;;;;;5074923;28;20904;-81
2022/12/20 11:49:13;;;;;;;7.63;5.10;;;;;;;;;;5076165;28;20498;-81
2022/12/20 11:51:42;;;;;;;6.17;4.70;;;;;;;;;;5073320;28;20876;-81
2022/12/20 11:54:10;;;;;;;5.70;5.03;;;;;;;;;;5074353;28;20506;-81
2022/12/20 11:56:40;;;;;;;11.43;6.50;;;;;;;;;;5065401;28;20474;-81
2022/12/20 11:59:12;;;;;;;7.00;5.10;;;;;;;;;;5076008;28;20913;-81
2022/12/20 12:01:40;;;;;;;6.77;5.10;;;;;;;;;;5072187;28;20476;-81
2022/12/20 12:04:17;;;;;;;8.67;5.70;;;;;;;;;;5068826;28;20440;-81
2022/12/20 12:06:46;;;;;;;7.47;5.60;;;;;;;;;;5074320;28;20481;-80
2022/12/20 12:09:16;;;;;;;9.40;5.23;;;;;;;;;;5070747;28;20483;-81
2022/12/20 12:11:45;;;;;;;7.87;5.83;;;;;;;;;;5067410;28;20468;-81
2022/12/20 12:14:16;;;;;;;5.70;4.53;;;;;;;;;;5066375;28;20446;-81
2022/12/20 12:16:45;;;;;;;7.23;5.40;;;;;;;;;;5071640;28;20482;-82
2022/12/20 12:19:12;;;;;;;6.57;5.33;;;;;;;;;;5071971;28;20561;-80
2022/12/20 12:21:42;;;;;;;6.83;5.60;;;;;;;;;;5075847;28;20968;-81
2022/12/20 12:24:16;;;;;;;7.67;6.20;;;;;;;;;;5070707;28;20443;-81
2022/12/20 12:26:42;;;;;;;8.90;5.50;;;;;;;;;;5071685;28;20483;-81
2022/12/20 12:29:10;;;;;;;7.37;5.03;;;;;;;;;;5068805;28;20463;-81
2022/12/20 12:31:40;;;;;;;7.50;5.23;;;;;;;;;;5070959;28;20992;-81
2022/12/20 12:34:10;;;;;;;10.43;5.17;;;;;;;;;;5070371;28;20822;-80
2022/12/20 12:36:40;;;;;;;7.77;6.73;;;;;;;;;;5073819;28;20467;-81
2022/12/20 12:39:25;;;;;;;7.40;5.60;;;;;;;;;;5068230;28;20851;-81
2022/12/20 12:42:01;;;;;;;7.77;5.80;;;;;;;;;;5032839;28;21029;-80
2022/12/20 12:44:32;;;;;;;8.30;5.50;;;;;;;;;;5068178;28;20440;-81
2022/12/20 12:47:02;;;;;;;7.27;5.77;;;;;;;;;;5069541;28;20475;-80
2022/12/20 12:49:31;;;;;;;6.33;5.70;;;;;;;;;;5068490;28;20463;-81
2022/12/20 12:51:59;;;;;;;8.57;6.43;;;;;;;;;;5072981;28;21125;-81
2022/12/20 12:54:27;;;;;;;7.40;5.67;;;;;;;;;;5066342;28;20796;-81
2022/12/20 12:56:55;;;;;;;6.13;5.50;;;;;;;;;;5070544;28;20478;-80
2022/12/20 12:59:24;;;;;;;8.80;6.20;;;;;;;;;;5068994;28;20477;-81
2022/12/20 13:01:52;;;;;;;8.60;5.80;;;;;;;;;;5069183;28;20475;-80
2022/12/20 13:04:24;;;;;;;9.30;6.37;;;;;;;;;;5070839;28;20501;-81
2022/12/20 13:07:01;;;;;;;13.13;6.70;;;;;;;;;;5064012;28;20471;-81
2022/12/20 13:09:43;;;;;;;10.80;6.30;;;;;;;;;;5071892;28;20450;-81
2022/12/20 13:12:28;;;;;;;8.80;5.83;;;;;;;;;;5064516;28;20477;-81
2022/12/20 13:14:54;;;;;;;8.30;6.60;;;;;;;;;;5069519;28;20448;-80
2022/12/20 13:17:46;;;;;;;11.80;6.77;;;;;;;;;;5069332;28;20467;-81
2022/12/20 13:20:18;;;;;;;7.13;6.10;;;;;;;;;;5072330;28;20455;-81
2022/12/20 13:22:59;;;;;;;6.97;5.93;;;;;;;;;;5069104;28;20871;-81
2022/12/20 13:25:29;;;;;;;7.50;6.10;;;;;;;;;;5074505;28;20463;-81
2022/12/20 13:28:28;;;;;;;8.20;6.17;;;;;;;;;;5072501;28;20482;-80
2022/12/20 13:31:10;;;;;;;7.03;6.33;;;;;;;;;;5068875;28;20491;-80
2022/12/20 13:33:40;;;;;;;9.43;6.70;;;;;;;;;;5066991;28;20473;-81
2022/12/20 13:36:26;;;;;;;12.17;6.87;;;;;;;;;;5070236;28;20442;-81
2022/12/20 13:38:58;;;;;;;11.17;6.07;;;;;;;;;;5066456;28;20516;-80
2022/12/20 13:41:29;;;;;;;12.90;7.53;;;;;;;;;;5068266;28;20475;-80
2022/12/20 13:43:56;;;;;;;8.97;7.13;;;;;;;;;;5076014;28;20443;-81
2022/12/20 13:46:25;;;;;;;8.10;6.80;;;;;;;;;;5069528;28;20463;-80
2022/12/20 13:48:52;;;;;;;8.47;6.90;;;;;;;;;;5071257;28;20463;-80
2022/12/20 13:51:20;;;;;;;10.23;6.40;;;;;;;;;;5073342;28;20462;-81
2022/12/20 13:53:51;;;;;;;10.63;7.40;;;;;;;;;;5068775;28;20610;-81
2022/12/20 13:56:28;;;;;;;9.53;7.20;;;;;;;;;;5072465;28;20471;-81
2022/12/20 13:58:56;;;;;;;10.90;7.57;;;;;;;;;;5066678;28;21083;-81
2022/12/20 14:01:24;;;;;;;13.10;7.40;;;;;;;;;;5069489;28;20462;-81
2022/12/20 14:03:51;;;;;;;10.30;7.23;;;;;;;;;;5067440;28;20448;-80
2022/12/20 14:06:18;;;;;;;12.93;8.00;;;;;;;;;;5068981;28;20991;-81
2022/12/20 14:08:46;;;;;;;13.47;8.70;;;;;;;;;;5067930;28;20472;-81
2022/12/20 14:11:14;;;;;;;8.30;6.67;;;;;;;;;;5066805;28;20479;-81
2022/12/20 14:13:40;;;;;;;11.53;8.27;;;;;;;;;;5070319;28;20443;-81
2022/12/20 14:16:10;;;;;;;9.90;8.20;;;;;;;;;;5067229;28;20470;-81
2022/12/20 14:18:36;;;;;;;8.83;6.77;;;;;;;;;;5065862;28;20988;-80
2022/12/20 14:21:04;;;;;;;9.90;7.83;;;;;;;;;;5070712;28;20448;-81
2022/12/20 14:23:33;;;;;;;8.63;7.70;;;;;;;;;;5069881;28;20456;-80
2022/12/20 14:26:01;;;;;;;10.77;7.27;;;;;;;;;;5071258;28;20459;-81
2022/12/20 14:28:29;;;;;;;9.63;7.57;;;;;;;;;;5067847;28;20744;-81
2022/12/20 14:30:57;;;;;;;9.30;7.60;;;;;;;;;;5066311;28;20498;-81
2022/12/20 14:33:30;;;;;;;8.20;7.40;;;;;;;;;;5069796;28;20956;-81
2022/12/20 14:35:56;;;;;;;8.47;7.67;;;;;;;;;;5067688;28;20916;-81
2022/12/20 14:38:24;;;;;;;10.63;8.03;;;;;;;;;;5066913;28;20527;-80
2022/12/20 14:40:51;;;;;;;12.23;7.73;;;;;;;;;;5067343;28;20460;-81
2022/12/20 14:43:23;;;;;;;8.50;7.37;;;;;;;;;;5064972;28;20467;-81
2022/12/20 14:46:06;;;;;;;12.27;7.80;;;;;;;;;;5067690;28;20444;-80
2022/12/20 14:48:34;;;;;;;13.87;8.00;;;;;;;;;;5062425;28;20475;-81
2022/12/20 14:51:04;;;;;;;11.60;7.70;;;;;;;;;;5068212;28;20454;-81
2022/12/20 14:53:30;;;;;;;9.13;7.77;;;;;;;;;;5063339;28;20452;-81
2022/12/20 14:55:57;;;;;;;11.93;7.60;;;;;;;;;;5065167;28;20837;-81
2022/12/20 14:58:25;;;;;;;13.57;8.53;;;;;;;;;;5070593;28;20980;-81